sensor_id;sensor_type;location;lat;lon;timestamp;P1;durP1;ratioP1;P2;durP2;ratioP2
17504;SDS011;8870;50.950;11.762;2023-09-07T00:01:20;2.70;;;1.40;;
17504;SDS011;8870;50.950;11.762;2023-09-07T00:06:52;1.77;;;1.30;;
17504;SDS011;8870;50.950;11.762;2023-09-07T00:12:13;1.50;;;1.30;;
17504;SDS011;8870;50.950;11.762;2023-09-07T00:17:44;1.67;;;1.30;;
17504;SDS011;8870;50.950;11.762;2023-09-07T00:23:09;1.42;;;1.33;;
17504;SDS011;8870;50.950;11.762;2023-09-07T00:28:44;1.40;;;1.30;;
17504;SDS011;8870;50.950;11.762;2023-09-07T00:34:03;2.60;;;1.30;;
17504;SDS011;8870;50.950;11.762;2023-09-07T00:39:34;1.67;;;1.25;;
17504;SDS011;8870;50.950;11.762;2023-09-07T00:44:56;1.67;;;1.35;;
17504;SDS011;8870;50.950;11.762;2023-09-07T00:50:28;1.67;;;1.38;;
17504;SDS011;8870;50.950;11.762;2023-09-07T00:55:47;3.28;;;1.45;;
17504;SDS011;8870;50.950;11.762;2023-09-07T01:01:21;2.67;;;1.40;;
17504;SDS011;8870;50.950;11.762;2023-09-07T01:06:42;2.00;;;1.40;;
17504;SDS011;8870;50.950;11.762;2023-09-07T01:12:17;1.50;;;1.40;;
17504;SDS011;8870;50.950;11.762;2023-09-07T01:17:38;1.63;;;1.38;;
17504;SDS011;8870;50.950;11.762;2023-09-07T01:23:28;1.92;;;1.40;;
17504;SDS011;8870;50.950;11.762;2023-09-07T01:29:00;1.67;;;1.55;;
17504;SDS011;8870;50.950;11.762;2023-09-07T01:34:18;2.30;;;1.50;;
17504;SDS011;8870;50.950;11.762;2023-09-07T01:39:55;1.98;;;1.33;;
17504;SDS011;8870;50.950;11.762;2023-09-07T01:45:13;3.58;;;1.58;;
17504;SDS011;8870;50.950;11.762;2023-09-07T01:50:46;2.47;;;1.50;;
17504;SDS011;8870;50.950;11.762;2023-09-07T01:56:07;1.60;;;1.50;;
17504;SDS011;8870;50.950;11.762;2023-09-07T02:01:39;2.83;;;1.73;;
17504;SDS011;8870;50.950;11.762;2023-09-07T02:06:57;2.47;;;1.60;;
17504;SDS011;8870;50.950;11.762;2023-09-07T02:12:32;3.30;;;1.83;;
17504;SDS011;8870;50.950;11.762;2023-09-07T02:17:50;1.85;;;1.67;;
17504;SDS011;8870;50.950;11.762;2023-09-07T02:23:21;2.63;;;1.80;;
17504;SDS011;8870;50.950;11.762;2023-09-07T02:28:55;3.58;;;1.70;;
17504;SDS011;8870;50.950;11.762;2023-09-07T02:34:13;2.10;;;1.63;;
17504;SDS011;8870;50.950;11.762;2023-09-07T02:39:44;2.05;;;1.50;;
17504;SDS011;8870;50.950;11.762;2023-09-07T02:45:06;2.83;;;1.70;;
17504;SDS011;8870;50.950;11.762;2023-09-07T02:50:37;2.20;;;1.60;;
17504;SDS011;8870;50.950;11.762;2023-09-07T02:55:58;2.25;;;1.77;;
17504;SDS011;8870;50.950;11.762;2023-09-07T03:07:00;1.95;;;1.77;;
17504;SDS011;8870;50.950;11.762;2023-09-07T03:12:33;3.15;;;1.70;;
17504;SDS011;8870;50.950;11.762;2023-09-07T03:17:52;2.72;;;1.90;;
17504;SDS011;8870;50.950;11.762;2023-09-07T03:23:29;2.40;;;1.90;;
17504;SDS011;8870;50.950;11.762;2023-09-07T03:29:05;2.33;;;2.07;;
17504;SDS011;8870;50.950;11.762;2023-09-07T03:34:26;2.10;;;1.90;;
17504;SDS011;8870;50.950;11.762;2023-09-07T03:40:00;2.15;;;1.73;;
17504;SDS011;8870;50.950;11.762;2023-09-07T03:45:20;3.08;;;1.85;;
17504;SDS011;8870;50.950;11.762;2023-09-07T03:50:54;2.65;;;1.83;;
17504;SDS011;8870;50.950;11.762;2023-09-07T03:56:16;2.13;;;1.65;;
17504;SDS011;8870;50.950;11.762;2023-09-07T04:01:49;2.17;;;1.80;;
17504;SDS011;8870;50.950;11.762;2023-09-07T04:07:10;2.75;;;1.83;;
17504;SDS011;8870;50.950;11.762;2023-09-07T04:12:44;3.30;;;2.13;;
17504;SDS011;8870;50.950;11.762;2023-09-07T04:18:05;3.70;;;2.10;;
17504;SDS011;8870;50.950;11.762;2023-09-07T04:23:39;3.42;;;1.88;;
17504;SDS011;8870;50.950;11.762;2023-09-07T04:29:16;2.58;;;1.83;;
17504;SDS011;8870;50.950;11.762;2023-09-07T04:34:35;3.40;;;2.38;;
17504;SDS011;8870;50.950;11.762;2023-09-07T04:40:08;2.42;;;2.22;;
17504;SDS011;8870;50.950;11.762;2023-09-07T04:45:29;3.15;;;2.20;;
17504;SDS011;8870;50.950;11.762;2023-09-07T04:51:01;4.95;;;2.25;;
17504;SDS011;8870;50.950;11.762;2023-09-07T04:56:22;3.22;;;1.83;;
17504;SDS011;8870;50.950;11.762;2023-09-07T05:01:58;3.10;;;1.80;;
17504;SDS011;8870;50.950;11.762;2023-09-07T05:07:17;2.03;;;1.50;;
17504;SDS011;8870;50.950;11.762;2023-09-07T05:12:49;2.53;;;2.00;;
17504;SDS011;8870;50.950;11.762;2023-09-07T05:18:10;4.30;;;1.80;;
17504;SDS011;8870;50.950;11.762;2023-09-07T05:23:42;3.05;;;1.90;;
17504;SDS011;8870;50.950;11.762;2023-09-07T05:29:13;3.35;;;2.10;;
17504;SDS011;8870;50.950;11.762;2023-09-07T05:34:34;2.65;;;1.70;;
17504;SDS011;8870;50.950;11.762;2023-09-07T05:40:07;5.72;;;2.40;;
17504;SDS011;8870;50.950;11.762;2023-09-07T05:45:27;2.47;;;2.05;;
17504;SDS011;8870;50.950;11.762;2023-09-07T05:51:00;3.47;;;1.90;;
17504;SDS011;8870;50.950;11.762;2023-09-07T05:56:19;2.70;;;1.90;;
17504;SDS011;8870;50.950;11.762;2023-09-07T06:07:11;3.03;;;2.05;;
17504;SDS011;8870;50.950;11.762;2023-09-07T06:12:42;3.80;;;1.95;;
17504;SDS011;8870;50.950;11.762;2023-09-07T06:18:01;6.00;;;2.33;;
17504;SDS011;8870;50.950;11.762;2023-09-07T06:23:35;4.65;;;2.00;;
17504;SDS011;8870;50.950;11.762;2023-09-07T06:29:06;4.75;;;2.05;;
17504;SDS011;8870;50.950;11.762;2023-09-07T06:40:01;4.22;;;2.20;;
17504;SDS011;8870;50.950;11.762;2023-09-07T06:51:11;3.95;;;1.90;;
17504;SDS011;8870;50.950;11.762;2023-09-07T06:56:38;4.25;;;2.05;;
17504;SDS011;8870;50.950;11.762;2023-09-07T07:02:09;5.30;;;2.17;;
17504;SDS011;8870;50.950;11.762;2023-09-07T07:07:28;3.90;;;2.00;;
17504;SDS011;8870;50.950;11.762;2023-09-07T07:13:02;4.78;;;1.90;;
17504;SDS011;8870;50.950;11.762;2023-09-07T07:18:21;4.65;;;2.00;;
17504;SDS011;8870;50.950;11.762;2023-09-07T07:23:52;2.45;;;1.80;;
17504;SDS011;8870;50.950;11.762;2023-09-07T07:29:26;2.67;;;1.77;;
17504;SDS011;8870;50.950;11.762;2023-09-07T07:34:45;2.10;;;1.70;;
17504;SDS011;8870;50.950;11.762;2023-09-07T07:40:17;2.35;;;1.70;;
17504;SDS011;8870;50.950;11.762;2023-09-07T07:45:39;5.90;;;1.83;;
17504;SDS011;8870;50.950;11.762;2023-09-07T07:51:13;3.00;;;1.80;;
17504;SDS011;8870;50.950;11.762;2023-09-07T07:56:32;2.85;;;1.70;;
17504;SDS011;8870;50.950;11.762;2023-09-07T08:02:06;6.13;;;1.65;;
17504;SDS011;8870;50.950;11.762;2023-09-07T08:07:26;2.15;;;1.52;;
17504;SDS011;8870;50.950;11.762;2023-09-07T08:12:58;3.50;;;1.40;;
17504;SDS011;8870;50.950;11.762;2023-09-07T08:18:21;3.72;;;1.67;;
17504;SDS011;8870;50.950;11.762;2023-09-07T08:23:55;1.45;;;1.35;;
17504;SDS011;8870;50.950;11.762;2023-09-07T08:29:28;3.58;;;1.40;;
17504;SDS011;8870;50.950;11.762;2023-09-07T08:34:49;2.92;;;1.40;;
17504;SDS011;8870;50.950;11.762;2023-09-07T08:40:22;2.20;;;1.50;;
17504;SDS011;8870;50.950;11.762;2023-09-07T08:45:44;6.63;;;1.60;;
17504;SDS011;8870;50.950;11.762;2023-09-07T08:51:24;4.45;;;1.40;;
17504;SDS011;8870;50.950;11.762;2023-09-07T08:56:43;1.45;;;1.30;;
17504;SDS011;8870;50.950;11.762;2023-09-07T09:02:19;1.63;;;1.20;;
17504;SDS011;8870;50.950;11.762;2023-09-07T09:07:40;1.60;;;1.25;;
17504;SDS011;8870;50.950;11.762;2023-09-07T09:13:12;1.88;;;1.20;;
17504;SDS011;8870;50.950;11.762;2023-09-07T09:18:31;2.20;;;1.20;;
17504;SDS011;8870;50.950;11.762;2023-09-07T09:24:09;1.48;;;1.20;;
17504;SDS011;8870;50.950;11.762;2023-09-07T09:29:42;1.35;;;1.13;;
17504;SDS011;8870;50.950;11.762;2023-09-07T09:35:02;2.17;;;1.20;;
17504;SDS011;8870;50.950;11.762;2023-09-07T09:40:36;2.40;;;1.02;;
17504;SDS011;8870;50.950;11.762;2023-09-07T09:45:55;1.20;;;1.10;;
17504;SDS011;8870;50.950;11.762;2023-09-07T09:51:27;1.02;;;0.90;;
17504;SDS011;8870;50.950;11.762;2023-09-07T09:56:54;1.92;;;0.90;;
17504;SDS011;8870;50.950;11.762;2023-09-07T10:02:26;2.53;;;1.10;;
17504;SDS011;8870;50.950;11.762;2023-09-07T10:07:48;2.75;;;1.00;;
17504;SDS011;8870;50.950;11.762;2023-09-07T10:13:31;1.40;;;0.90;;
17504;SDS011;8870;50.950;11.762;2023-09-07T10:18:50;1.42;;;0.90;;
17504;SDS011;8870;50.950;11.762;2023-09-07T10:24:25;1.45;;;1.00;;
17504;SDS011;8870;50.950;11.762;2023-09-07T10:30:03;1.35;;;0.88;;
17504;SDS011;8870;50.950;11.762;2023-09-07T10:35:27;1.75;;;1.10;;
17504;SDS011;8870;50.950;11.762;2023-09-07T10:41:00;2.00;;;0.90;;
17504;SDS011;8870;50.950;11.762;2023-09-07T10:46:21;2.83;;;1.00;;
17504;SDS011;8870;50.950;11.762;2023-09-07T10:51:54;2.10;;;0.90;;
17504;SDS011;8870;50.950;11.762;2023-09-07T10:57:12;1.05;;;0.95;;
17504;SDS011;8870;50.950;11.762;2023-09-07T11:02:47;1.67;;;0.98;;
17504;SDS011;8870;50.950;11.762;2023-09-07T11:08:06;1.33;;;1.05;;
17504;SDS011;8870;50.950;11.762;2023-09-07T11:13:38;1.90;;;1.10;;
17504;SDS011;8870;50.950;11.762;2023-09-07T11:18:59;0.85;;;0.82;;
17504;SDS011;8870;50.950;11.762;2023-09-07T11:24:34;6.78;;;1.02;;
17504;SDS011;8870;50.950;11.762;2023-09-07T11:30:06;1.00;;;0.90;;
17504;SDS011;8870;50.950;11.762;2023-09-07T11:35:30;1.30;;;1.02;;
17504;SDS011;8870;50.950;11.762;2023-09-07T11:41:02;1.77;;;1.05;;
17504;SDS011;8870;50.950;11.762;2023-09-07T11:46:20;4.35;;;1.10;;
17504;SDS011;8870;50.950;11.762;2023-09-07T11:51:54;4.20;;;1.17;;
17504;SDS011;8870;50.950;11.762;2023-09-07T11:57:13;3.92;;;1.00;;
17504;SDS011;8870;50.950;11.762;2023-09-07T12:02:44;1.25;;;1.00;;
17504;SDS011;8870;50.950;11.762;2023-09-07T12:08:08;3.67;;;0.80;;
17504;SDS011;8870;50.950;11.762;2023-09-07T12:13:44;1.55;;;1.00;;
17504;SDS011;8870;50.950;11.762;2023-09-07T12:19:03;1.98;;;0.90;;
17504;SDS011;8870;50.950;11.762;2023-09-07T12:24:36;1.27;;;0.90;;
17504;SDS011;8870;50.950;11.762;2023-09-07T12:30:27;0.80;;;0.80;;
17504;SDS011;8870;50.950;11.762;2023-09-07T12:35:45;1.35;;;0.80;;
17504;SDS011;8870;50.950;11.762;2023-09-07T12:41:20;1.90;;;0.93;;
17504;SDS011;8870;50.950;11.762;2023-09-07T12:46:40;3.20;;;0.80;;
17504;SDS011;8870;50.950;11.762;2023-09-07T12:52:11;1.48;;;0.90;;
17504;SDS011;8870;50.950;11.762;2023-09-07T12:57:32;0.80;;;0.80;;
17504;SDS011;8870;50.950;11.762;2023-09-07T13:03:05;2.42;;;0.70;;
17504;SDS011;8870;50.950;11.762;2023-09-07T13:08:23;2.15;;;0.77;;
17504;SDS011;8870;50.950;11.762;2023-09-07T13:13:57;2.08;;;0.90;;
17504;SDS011;8870;50.950;11.762;2023-09-07T13:19:20;1.70;;;0.77;;
17504;SDS011;8870;50.950;11.762;2023-09-07T13:24:52;1.40;;;0.80;;
17504;SDS011;8870;50.950;11.762;2023-09-07T13:30:26;2.25;;;0.70;;
17504;SDS011;8870;50.950;11.762;2023-09-07T13:35:44;1.10;;;0.70;;
17504;SDS011;8870;50.950;11.762;2023-09-07T13:41:15;1.00;;;0.60;;
17504;SDS011;8870;50.950;11.762;2023-09-07T13:46:35;2.80;;;0.70;;
17504;SDS011;8870;50.950;11.762;2023-09-07T13:52:08;1.00;;;0.63;;
17504;SDS011;8870;50.950;11.762;2023-09-07T13:57:28;3.90;;;0.80;;
17504;SDS011;8870;50.950;11.762;2023-09-07T14:03:02;1.27;;;0.60;;
17504;SDS011;8870;50.950;11.762;2023-09-07T14:08:21;3.92;;;0.75;;
17504;SDS011;8870;50.950;11.762;2023-09-07T14:13:55;3.90;;;0.70;;
17504;SDS011;8870;50.950;11.762;2023-09-07T14:19:16;4.88;;;0.55;;
17504;SDS011;8870;50.950;11.762;2023-09-07T14:24:50;1.48;;;0.60;;
17504;SDS011;8870;50.950;11.762;2023-09-07T14:30:21;1.23;;;0.60;;
17504;SDS011;8870;50.950;11.762;2023-09-07T14:35:42;5.18;;;0.60;;
17504;SDS011;8870;50.950;11.762;2023-09-07T14:46:36;1.35;;;0.70;;
17504;SDS011;8870;50.950;11.762;2023-09-07T14:52:11;1.85;;;0.60;;
17504;SDS011;8870;50.950;11.762;2023-09-07T14:57:30;1.80;;;0.77;;
17504;SDS011;8870;50.950;11.762;2023-09-07T15:03:03;1.63;;;0.70;;
17504;SDS011;8870;50.950;11.762;2023-09-07T15:08:25;2.35;;;0.52;;
17504;SDS011;8870;50.950;11.762;2023-09-07T15:13:57;1.35;;;0.88;;
17504;SDS011;8870;50.950;11.762;2023-09-07T15:24:58;2.15;;;0.60;;
17504;SDS011;8870;50.950;11.762;2023-09-07T15:30:30;1.17;;;0.60;;
17504;SDS011;8870;50.950;11.762;2023-09-07T15:35:50;3.75;;;0.65;;
17504;SDS011;8870;50.950;11.762;2023-09-07T15:41:23;3.08;;;0.63;;
17504;SDS011;8870;50.950;11.762;2023-09-07T15:46:42;2.08;;;0.70;;
17504;SDS011;8870;50.950;11.762;2023-09-07T15:52:17;0.90;;;0.65;;
17504;SDS011;8870;50.950;11.762;2023-09-07T15:57:39;3.67;;;0.73;;
17504;SDS011;8870;50.950;11.762;2023-09-07T16:03:11;0.68;;;0.43;;
17504;SDS011;8870;50.950;11.762;2023-09-07T16:08:32;4.25;;;0.80;;
17504;SDS011;8870;50.950;11.762;2023-09-07T16:14:08;3.22;;;0.93;;
17504;SDS011;8870;50.950;11.762;2023-09-07T16:19:27;1.47;;;0.63;;
17504;SDS011;8870;50.950;11.762;2023-09-07T16:25:01;2.55;;;0.70;;
17504;SDS011;8870;50.950;11.762;2023-09-07T16:30:36;2.40;;;0.63;;
17504;SDS011;8870;50.950;11.762;2023-09-07T16:35:54;3.33;;;0.77;;
17504;SDS011;8870;50.950;11.762;2023-09-07T16:41:25;1.63;;;0.60;;
17504;SDS011;8870;50.950;11.762;2023-09-07T16:46:46;2.80;;;0.80;;
17504;SDS011;8870;50.950;11.762;2023-09-07T16:52:19;1.58;;;0.80;;
17504;SDS011;8870;50.950;11.762;2023-09-07T16:57:38;2.22;;;0.75;;
17504;SDS011;8870;50.950;11.762;2023-09-07T17:03:12;4.50;;;0.70;;
17504;SDS011;8870;50.950;11.762;2023-09-07T17:08:31;5.50;;;0.90;;
17504;SDS011;8870;50.950;11.762;2023-09-07T17:14:02;1.85;;;0.80;;
17504;SDS011;8870;50.950;11.762;2023-09-07T17:19:23;1.00;;;0.75;;
17504;SDS011;8870;50.950;11.762;2023-09-07T17:24:55;4.70;;;1.10;;
17504;SDS011;8870;50.950;11.762;2023-09-07T17:30:26;1.50;;;0.70;;
17504;SDS011;8870;50.950;11.762;2023-09-07T17:35:48;1.20;;;0.90;;
17504;SDS011;8870;50.950;11.762;2023-09-07T17:41:19;1.33;;;0.75;;
17504;SDS011;8870;50.950;11.762;2023-09-07T17:46:38;4.50;;;1.02;;
17504;SDS011;8870;50.950;11.762;2023-09-07T17:52:13;5.47;;;1.10;;
17504;SDS011;8870;50.950;11.762;2023-09-07T17:57:31;2.42;;;1.08;;
17504;SDS011;8870;50.950;11.762;2023-09-07T18:03:02;3.53;;;1.00;;
17504;SDS011;8870;50.950;11.762;2023-09-07T18:08:24;2.83;;;0.80;;
17504;SDS011;8870;50.950;11.762;2023-09-07T18:13:55;2.55;;;1.25;;
17504;SDS011;8870;50.950;11.762;2023-09-07T18:19:20;3.30;;;1.00;;
17504;SDS011;8870;50.950;11.762;2023-09-07T18:24:54;2.55;;;1.17;;
17504;SDS011;8870;50.950;11.762;2023-09-07T18:30:26;2.25;;;1.00;;
17504;SDS011;8870;50.950;11.762;2023-09-07T18:35:45;2.35;;;1.10;;
17504;SDS011;8870;50.950;11.762;2023-09-07T18:41:19;2.83;;;1.20;;
17504;SDS011;8870;50.950;11.762;2023-09-07T18:46:38;1.73;;;1.00;;
17504;SDS011;8870;50.950;11.762;2023-09-07T18:52:09;1.63;;;1.10;;
17504;SDS011;8870;50.950;11.762;2023-09-07T18:57:30;2.25;;;1.10;;
17504;SDS011;8870;50.950;11.762;2023-09-07T19:03:05;1.50;;;1.20;;
17504;SDS011;8870;50.950;11.762;2023-09-07T19:08:25;4.53;;;1.38;;
17504;SDS011;8870;50.950;11.762;2023-09-07T19:13:59;16.35;;;1.70;;
17504;SDS011;8870;50.950;11.762;2023-09-07T19:19:17;1.70;;;1.33;;
17504;SDS011;8870;50.950;11.762;2023-09-07T19:24:43;3.13;;;1.35;;
17504;SDS011;8870;50.950;11.762;2023-09-07T19:30:17;2.75;;;1.20;;
17504;SDS011;8870;50.950;11.762;2023-09-07T19:35:49;2.92;;;1.20;;
17504;SDS011;8870;50.950;11.762;2023-09-07T19:41:20;3.00;;;1.38;;
17504;SDS011;8870;50.950;11.762;2023-09-07T19:46:42;2.63;;;1.23;;
17504;SDS011;8870;50.950;11.762;2023-09-07T19:52:13;1.50;;;1.30;;
17504;SDS011;8870;50.950;11.762;2023-09-07T19:57:32;3.38;;;1.40;;
17504;SDS011;8870;50.950;11.762;2023-09-07T20:03:06;2.33;;;1.30;;
17504;SDS011;8870;50.950;11.762;2023-09-07T20:08:25;5.35;;;1.42;;
17504;SDS011;8870;50.950;11.762;2023-09-07T20:13:56;1.75;;;1.38;;
17504;SDS011;8870;50.950;11.762;2023-09-07T20:19:17;5.43;;;1.45;;
17504;SDS011;8870;50.950;11.762;2023-09-07T20:24:48;1.42;;;1.33;;
17504;SDS011;8870;50.950;11.762;2023-09-07T20:30:20;1.73;;;1.30;;
17504;SDS011;8870;50.950;11.762;2023-09-07T20:35:41;2.05;;;1.40;;
17504;SDS011;8870;50.950;11.762;2023-09-07T20:41:13;1.85;;;1.40;;
17504;SDS011;8870;50.950;11.762;2023-09-07T20:46:31;2.78;;;1.30;;
17504;SDS011;8870;50.950;11.762;2023-09-07T20:52:07;3.25;;;1.30;;
17504;SDS011;8870;50.950;11.762;2023-09-07T20:57:25;1.80;;;1.25;;
17504;SDS011;8870;50.950;11.762;2023-09-07T21:02:56;1.88;;;1.40;;
17504;SDS011;8870;50.950;11.762;2023-09-07T21:08:19;5.13;;;1.40;;
17504;SDS011;8870;50.950;11.762;2023-09-07T21:13:52;2.13;;;1.20;;
17504;SDS011;8870;50.950;11.762;2023-09-07T21:19:11;2.22;;;1.45;;
17504;SDS011;8870;50.950;11.762;2023-09-07T21:24:48;3.40;;;1.40;;
17504;SDS011;8870;50.950;11.762;2023-09-07T21:30:07;3.58;;;1.40;;
17504;SDS011;8870;50.950;11.762;2023-09-07T21:35:40;3.95;;;1.50;;
17504;SDS011;8870;50.950;11.762;2023-09-07T21:41:02;1.70;;;1.35;;
17504;SDS011;8870;50.950;11.762;2023-09-07T21:46:34;3.80;;;1.40;;
17504;SDS011;8870;50.950;11.762;2023-09-07T21:51:53;2.10;;;1.40;;
17504;SDS011;8870;50.950;11.762;2023-09-07T21:57:27;3.53;;;1.38;;
17504;SDS011;8870;50.950;11.762;2023-09-07T22:02:45;1.73;;;1.30;;
17504;SDS011;8870;50.950;11.762;2023-09-07T22:08:18;1.33;;;1.20;;
17504;SDS011;8870;50.950;11.762;2023-09-07T22:13:39;1.77;;;1.40;;
17504;SDS011;8870;50.950;11.762;2023-09-07T22:19:11;2.70;;;1.38;;
17504;SDS011;8870;50.950;11.762;2023-09-07T22:24:29;2.65;;;1.30;;
17504;SDS011;8870;50.950;11.762;2023-09-07T22:30:03;1.63;;;1.35;;
17504;SDS011;8870;50.950;11.762;2023-09-07T22:35:22;2.22;;;1.40;;
17504;SDS011;8870;50.950;11.762;2023-09-07T22:40:55;2.75;;;1.38;;
17504;SDS011;8870;50.950;11.762;2023-09-07T22:46:16;3.33;;;1.20;;
17504;SDS011;8870;50.950;11.762;2023-09-07T22:51:47;4.50;;;1.33;;
17504;SDS011;8870;50.950;11.762;2023-09-07T22:57:05;1.83;;;1.15;;
17504;SDS011;8870;50.950;11.762;2023-09-07T23:02:41;1.65;;;1.40;;
17504;SDS011;8870;50.950;11.762;2023-09-07T23:08:06;3.00;;;1.40;;
17504;SDS011;8870;50.950;11.762;2023-09-07T23:13:37;2.20;;;1.50;;
17504;SDS011;8870;50.950;11.762;2023-09-07T23:19:07;4.60;;;1.50;;
17504;SDS011;8870;50.950;11.762;2023-09-07T23:24:39;4.13;;;1.20;;
17504;SDS011;8870;50.950;11.762;2023-09-07T23:29:57;1.35;;;1.25;;
17504;SDS011;8870;50.950;11.762;2023-09-07T23:35:34;2.72;;;1.30;;
17504;SDS011;8870;50.950;11.762;2023-09-07T23:40:52;2.03;;;1.30;;
17504;SDS011;8870;50.950;11.762;2023-09-07T23:46:23;3.03;;;1.30;;
17504;SDS011;8870;50.950;11.762;2023-09-07T23:51:44;2.35;;;1.35;;
17504;SDS011;8870;50.950;11.762;2023-09-07T23:57:16;2.25;;;1.30;;
